IBS1671 LEMD-LEPA
Flight info
| Callsign | IBS1671 |
|---|---|
| Flight time | 0h 51m |
| Altitude | 32000 |
| Route | NANDO M871 GODOX |
| Aircraft | A320/M-SDE3FGHIRWY/LB1 |
Departure
| Time | 2026-05-07 19:15 |
|---|---|
| Airport | Adolfo Suárez Madrid–Barajas Airport (LEMD) |
Arrival
| Time | 2026-05-07 20:06 |
|---|---|
| Airport | Palma de Mallorca Airport (LEPA) |
| Time | Latitude | Longitude | Altitude | Speed | Heading |
|---|---|---|---|---|---|
| 2026-05-07 18:45 | 40.49495 | -3.58970 | 2026 ft | 0 kts | 271° |
| 2026-05-07 19:03 | 40.49495 | -3.58967 | 2022 ft | 2 kts | 271° |
| 2026-05-07 19:04 | 40.49496 | -3.58933 | 2026 ft | 4 kts | 258° |
| 2026-05-07 19:04 | 40.49505 | -3.58901 | 2026 ft | 4 kts | 232° |
| 2026-05-07 19:04 | 40.49523 | -3.58884 | 2033 ft | 2 kts | 180° |
| 2026-05-07 19:04 | 40.49528 | -3.58884 | 2033 ft | 0 kts | 179° |
| 2026-05-07 19:07 | 40.49487 | -3.58883 | 2017 ft | 18 kts | 179° |
| 2026-05-07 19:07 | 40.49337 | -3.58882 | 2029 ft | 22 kts | 180° |
| 2026-05-07 19:07 | 40.49180 | -3.58881 | 2022 ft | 23 kts | 180° |
| 2026-05-07 19:08 | 40.49016 | -3.58880 | 2022 ft | 24 kts | 180° |
| 2026-05-07 19:08 | 40.48853 | -3.58878 | 2024 ft | 19 kts | 179° |
| 2026-05-07 19:08 | 40.48759 | -3.58838 | 2022 ft | 14 kts | 114° |
| 2026-05-07 19:08 | 40.48759 | -3.58708 | 2022 ft | 18 kts | 89° |
| 2026-05-07 19:09 | 40.48762 | -3.58531 | 2018 ft | 21 kts | 91° |
| 2026-05-07 19:09 | 40.48760 | -3.58323 | 2013 ft | 19 kts | 90° |
| 2026-05-07 19:09 | 40.48761 | -3.58156 | 2007 ft | 18 kts | 89° |
| 2026-05-07 19:09 | 40.48834 | -3.58044 | 2003 ft | 18 kts | 21° |
| 2026-05-07 19:10 | 40.48857 | -3.57895 | 1997 ft | 20 kts | 89° |
| 2026-05-07 19:10 | 40.48857 | -3.57670 | 1991 ft | 27 kts | 90° |
| 2026-05-07 19:10 | 40.48859 | -3.57413 | 1987 ft | 29 kts | 89° |
| 2026-05-07 19:10 | 40.48860 | -3.57161 | 1982 ft | 27 kts | 90° |
| 2026-05-07 19:11 | 40.48862 | -3.56906 | 1977 ft | 29 kts | 89° |
| 2026-05-07 19:11 | 40.48861 | -3.56653 | 1973 ft | 25 kts | 90° |
| 2026-05-07 19:11 | 40.48862 | -3.56422 | 1966 ft | 18 kts | 90° |
| 2026-05-07 19:11 | 40.48888 | -3.56258 | 1962 ft | 20 kts | 38° |
| 2026-05-07 19:12 | 40.49024 | -3.56241 | 1962 ft | 20 kts | 1° |
| 2026-05-07 19:12 | 40.49181 | -3.56241 | 1962 ft | 23 kts | 359° |
| 2026-05-07 19:12 | 40.49345 | -3.56245 | 1962 ft | 24 kts | 358° |
| 2026-05-07 19:12 | 40.49510 | -3.56250 | 1961 ft | 24 kts | 359° |
| 2026-05-07 19:13 | 40.49678 | -3.56250 | 1961 ft | 24 kts | 357° |
| 2026-05-07 19:13 | 40.49847 | -3.56250 | 1961 ft | 24 kts | 360° |
| 2026-05-07 19:13 | 40.49940 | -3.56196 | 1960 ft | 16 kts | 83° |
| 2026-05-07 19:13 | 40.49949 | -3.56037 | 1958 ft | 18 kts | 75° |
| 2026-05-07 19:14 | 40.49994 | -3.55951 | 1959 ft | 17 kts | 36° |
| 2026-05-07 19:14 | 40.50113 | -3.55920 | 1960 ft | 18 kts | 360° |
| 2026-05-07 19:14 | 40.50315 | -3.55922 | 1961 ft | 59 kts | 359° |
| 2026-05-07 19:14 | 40.50994 | -3.55926 | 1961 ft | 134 kts | 0° |
| 2026-05-07 19:15 | 40.52118 | -3.55931 | 2129 ft | 175 kts | 360° |
| 2026-05-07 19:15 | 40.53329 | -3.55924 | 3044 ft | 175 kts | 1° |
| 2026-05-07 19:15 | 40.54551 | -3.55902 | 3947 ft | 177 kts | 4° |
| 2026-05-07 19:15 | 40.55825 | -3.55588 | 4424 ft | 197 kts | 23° |
| 2026-05-07 19:16 | 40.57151 | -3.54793 | 4911 ft | 221 kts | 24° |
| 2026-05-07 19:16 | 40.58628 | -3.54065 | 5496 ft | 231 kts | 22° |
| 2026-05-07 19:16 | 40.60049 | -3.53028 | 6055 ft | 240 kts | 40° |
| 2026-05-07 19:16 | 40.61356 | -3.51590 | 6666 ft | 248 kts | 41° |
| 2026-05-07 19:17 | 40.62683 | -3.50117 | 7370 ft | 251 kts | 41° |
| 2026-05-07 19:17 | 40.64030 | -3.48616 | 8079 ft | 256 kts | 41° |
| 2026-05-07 19:17 | 40.65394 | -3.47092 | 8833 ft | 259 kts | 40° |
| 2026-05-07 19:17 | 40.66776 | -3.45546 | 9603 ft | 262 kts | 40° |
| 2026-05-07 19:18 | 40.68151 | -3.43910 | 10114 ft | 276 kts | 51° |
| 2026-05-07 19:18 | 40.69066 | -3.41600 | 10342 ft | 297 kts | 79° |
| 2026-05-07 19:18 | 40.69023 | -3.38820 | 10562 ft | 316 kts | 109° |
| 2026-05-07 19:18 | 40.67953 | -3.36220 | 10774 ft | 334 kts | 127° |
| 2026-05-07 19:19 | 40.66577 | -3.33749 | 11295 ft | 342 kts | 128° |
| 2026-05-07 19:19 | 40.65120 | -3.31242 | 11975 ft | 347 kts | 129° |
| 2026-05-07 19:19 | 40.63634 | -3.28718 | 12660 ft | 351 kts | 129° |
| 2026-05-07 19:19 | 40.62116 | -3.26127 | 13345 ft | 355 kts | 129° |
| 2026-05-07 19:20 | 40.60631 | -3.23566 | 13978 ft | 359 kts | 128° |
| 2026-05-07 19:20 | 40.59117 | -3.20931 | 14571 ft | 362 kts | 128° |
| 2026-05-07 19:20 | 40.57595 | -3.18271 | 15163 ft | 366 kts | 128° |
| 2026-05-07 19:20 | 40.56054 | -3.15582 | 15751 ft | 370 kts | 128° |
| 2026-05-07 19:21 | 40.54496 | -3.12865 | 16319 ft | 374 kts | 128° |
| 2026-05-07 19:21 | 40.52921 | -3.10115 | 16903 ft | 378 kts | 128° |
| 2026-05-07 19:21 | 40.51332 | -3.07347 | 17471 ft | 381 kts | 128° |
| 2026-05-07 19:21 | 40.49724 | -3.04553 | 18033 ft | 385 kts | 129° |
| 2026-05-07 19:22 | 40.48101 | -3.01738 | 18558 ft | 388 kts | 129° |
| 2026-05-07 19:22 | 40.46462 | -2.98897 | 19035 ft | 392 kts | 129° |
| 2026-05-07 19:22 | 40.44809 | -2.96032 | 19502 ft | 395 kts | 129° |
| 2026-05-07 19:22 | 40.43139 | -2.93145 | 19946 ft | 400 kts | 129° |
| 2026-05-07 19:23 | 40.41447 | -2.90223 | 20370 ft | 404 kts | 129° |
| 2026-05-07 19:23 | 40.39739 | -2.87275 | 20813 ft | 408 kts | 129° |
| 2026-05-07 19:23 | 40.38014 | -2.84299 | 21249 ft | 412 kts | 129° |
| 2026-05-07 19:23 | 40.36272 | -2.81290 | 21692 ft | 416 kts | 129° |
| 2026-05-07 19:24 | 40.34517 | -2.78257 | 22125 ft | 420 kts | 129° |
| 2026-05-07 19:24 | 40.32743 | -2.75200 | 22542 ft | 423 kts | 129° |
| 2026-05-07 19:24 | 40.30952 | -2.72118 | 22955 ft | 427 kts | 129° |
| 2026-05-07 19:24 | 40.29142 | -2.69005 | 23359 ft | 431 kts | 129° |
| 2026-05-07 19:25 | 40.27317 | -2.65877 | 23742 ft | 433 kts | 129° |
| 2026-05-07 19:25 | 40.25485 | -2.62736 | 24121 ft | 436 kts | 129° |
| 2026-05-07 19:25 | 40.23638 | -2.59572 | 24434 ft | 440 kts | 129° |
| 2026-05-07 19:25 | 40.21771 | -2.56372 | 24707 ft | 445 kts | 129° |
| 2026-05-07 19:26 | 40.19878 | -2.53133 | 24892 ft | 451 kts | 129° |
| 2026-05-07 19:26 | 40.17961 | -2.49857 | 25156 ft | 456 kts | 129° |
| 2026-05-07 19:26 | 40.16026 | -2.46552 | 25445 ft | 460 kts | 129° |
| 2026-05-07 19:26 | 40.14070 | -2.43216 | 25734 ft | 464 kts | 129° |
| 2026-05-07 19:27 | 40.12101 | -2.39866 | 26021 ft | 467 kts | 130° |
| 2026-05-07 19:27 | 40.10110 | -2.36484 | 26297 ft | 471 kts | 130° |
| 2026-05-07 19:27 | 40.08105 | -2.33080 | 26569 ft | 475 kts | 130° |
| 2026-05-07 19:27 | 40.06084 | -2.29650 | 26860 ft | 478 kts | 130° |
| 2026-05-07 19:28 | 40.04046 | -2.26197 | 27178 ft | 481 kts | 130° |
| 2026-05-07 19:28 | 40.01998 | -2.22727 | 27455 ft | 485 kts | 130° |
| 2026-05-07 19:28 | 39.99978 | -2.19186 | 27683 ft | 490 kts | 124° |
| 2026-05-07 19:28 | 39.98419 | -2.15209 | 27911 ft | 497 kts | 110° |
| 2026-05-07 19:29 | 39.97397 | -2.10895 | 28168 ft | 500 kts | 106° |
| 2026-05-07 19:29 | 39.96405 | -2.06526 | 28433 ft | 504 kts | 106° |
| 2026-05-07 19:29 | 39.95387 | -2.02143 | 28691 ft | 507 kts | 107° |
| 2026-05-07 19:29 | 39.94349 | -1.97738 | 28960 ft | 510 kts | 107° |
| 2026-05-07 19:30 | 39.93312 | -1.93365 | 29193 ft | 514 kts | 107° |
| 2026-05-07 19:30 | 39.92252 | -1.88899 | 29450 ft | 517 kts | 107° |
| 2026-05-07 19:30 | 39.91192 | -1.84417 | 29710 ft | 519 kts | 106° |
| 2026-05-07 19:30 | 39.90129 | -1.79911 | 29954 ft | 522 kts | 106° |
| 2026-05-07 19:31 | 39.89062 | -1.75378 | 30165 ft | 525 kts | 106° |
| 2026-05-07 19:31 | 39.87991 | -1.70817 | 30356 ft | 528 kts | 106° |
| 2026-05-07 19:31 | 39.86915 | -1.66242 | 30575 ft | 530 kts | 107° |
| 2026-05-07 19:31 | 39.85833 | -1.61653 | 30807 ft | 531 kts | 106° |
| 2026-05-07 19:32 | 39.84747 | -1.57063 | 31102 ft | 530 kts | 106° |
| 2026-05-07 19:32 | 39.83659 | -1.52473 | 31385 ft | 530 kts | 107° |
| 2026-05-07 19:32 | 39.82576 | -1.47904 | 31759 ft | 527 kts | 107° |
| 2026-05-07 19:32 | 39.81492 | -1.43353 | 31945 ft | 526 kts | 107° |
| 2026-05-07 19:33 | 39.78749 | -1.34716 | 31952 ft | 514 kts | 124° |
| 2026-05-07 19:33 | 39.74180 | -1.27695 | 31953 ft | 505 kts | 144° |
| 2026-05-07 19:34 | 39.68358 | -1.22856 | 31950 ft | 491 kts | 163° |
| 2026-05-07 19:34 | 39.62132 | -1.19203 | 31956 ft | 491 kts | 163° |
| 2026-05-07 19:35 | 39.56257 | -1.14490 | 31945 ft | 506 kts | 144° |
| 2026-05-07 19:35 | 39.53761 | -1.11247 | 31949 ft | 511 kts | 133° |
| 2026-05-07 19:35 | 39.51671 | -1.07511 | 31959 ft | 515 kts | 123° |
| 2026-05-07 19:36 | 39.48126 | -0.99427 | 31969 ft | 516 kts | 121° |
| 2026-05-07 19:36 | 39.44577 | -0.91351 | 31982 ft | 516 kts | 121° |
| 2026-05-07 19:37 | 39.41022 | -0.83280 | 31976 ft | 516 kts | 121° |
| 2026-05-07 19:37 | 39.37473 | -0.75207 | 31992 ft | 516 kts | 122° |
| 2026-05-07 19:38 | 39.33914 | -0.67172 | 31980 ft | 514 kts | 122° |
| 2026-05-07 19:38 | 39.30559 | -0.59013 | 31969 ft | 516 kts | 112° |
| 2026-05-07 19:39 | 39.28865 | -0.50101 | 31979 ft | 515 kts | 92° |
| 2026-05-07 19:39 | 39.28993 | -0.40874 | 31971 ft | 510 kts | 82° |
| 2026-05-07 19:40 | 39.29478 | -0.31733 | 31967 ft | 511 kts | 82° |
| 2026-05-07 19:40 | 39.29951 | -0.22630 | 31970 ft | 512 kts | 82° |
| 2026-05-07 19:41 | 39.30418 | -0.13457 | 31968 ft | 512 kts | 82° |
| 2026-05-07 19:41 | 39.30882 | -0.04280 | 31979 ft | 512 kts | 82° |
| 2026-05-07 19:42 | 39.31343 | 0.04900 | 31997 ft | 512 kts | 83° |
| 2026-05-07 19:42 | 39.31791 | 0.14069 | 31995 ft | 511 kts | 83° |
| 2026-05-07 19:43 | 39.32233 | 0.23213 | 31970 ft | 510 kts | 83° |
| 2026-05-07 19:43 | 39.32664 | 0.32358 | 31977 ft | 510 kts | 83° |
| 2026-05-07 19:44 | 39.33094 | 0.41561 | 31985 ft | 517 kts | 84° |
| 2026-05-07 19:44 | 39.33521 | 0.50829 | 31582 ft | 517 kts | 84° |
| 2026-05-07 19:45 | 39.33728 | 0.55468 | 30814 ft | 517 kts | 84° |
| 2026-05-07 19:45 | 39.33934 | 0.60089 | 30197 ft | 513 kts | 84° |
| 2026-05-07 19:45 | 39.34137 | 0.64671 | 29560 ft | 509 kts | 84° |
| 2026-05-07 19:45 | 39.34336 | 0.69207 | 28981 ft | 502 kts | 85° |
| 2026-05-07 19:46 | 39.34528 | 0.73670 | 28440 ft | 494 kts | 85° |
| 2026-05-07 19:46 | 39.34716 | 0.78071 | 27940 ft | 486 kts | 87° |
| 2026-05-07 19:46 | 39.34898 | 0.82299 | 27717 ft | 471 kts | 88° |
| 2026-05-07 19:46 | 39.35079 | 0.86467 | 27390 ft | 459 kts | 89° |
| 2026-05-07 19:47 | 39.35257 | 0.90544 | 26932 ft | 451 kts | 89° |
| 2026-05-07 19:47 | 39.35432 | 0.94561 | 26411 ft | 445 kts | 89° |
| 2026-05-07 19:47 | 39.35600 | 0.98536 | 25882 ft | 440 kts | 89° |
| 2026-05-07 19:47 | 39.35763 | 1.02457 | 25363 ft | 435 kts | 89° |
| 2026-05-07 19:48 | 39.35921 | 1.06333 | 24849 ft | 430 kts | 89° |
| 2026-05-07 19:48 | 39.36074 | 1.10165 | 24333 ft | 425 kts | 89° |
| 2026-05-07 19:48 | 39.36226 | 1.13955 | 23793 ft | 417 kts | 89° |
| 2026-05-07 19:48 | 39.36373 | 1.17670 | 22890 ft | 411 kts | 89° |
| 2026-05-07 19:49 | 39.36516 | 1.21336 | 21980 ft | 406 kts | 89° |
| 2026-05-07 19:49 | 39.36655 | 1.24958 | 21097 ft | 401 kts | 89° |
| 2026-05-07 19:49 | 39.36790 | 1.28544 | 20324 ft | 395 kts | 89° |
| 2026-05-07 19:49 | 39.36923 | 1.32021 | 19940 ft | 380 kts | 89° |
| 2026-05-07 19:50 | 39.37053 | 1.35383 | 19415 ft | 371 kts | 89° |
| 2026-05-07 19:50 | 39.37178 | 1.38686 | 18782 ft | 366 kts | 89° |
| 2026-05-07 19:50 | 39.37383 | 1.41953 | 18110 ft | 363 kts | 82° |
| 2026-05-07 19:50 | 39.37808 | 1.45156 | 17373 ft | 360 kts | 82° |
| 2026-05-07 19:51 | 39.38222 | 1.48286 | 16693 ft | 356 kts | 82° |
| 2026-05-07 19:51 | 39.38636 | 1.51441 | 16197 ft | 355 kts | 82° |
| 2026-05-07 19:51 | 39.39048 | 1.54570 | 15841 ft | 351 kts | 82° |
| 2026-05-07 19:51 | 39.39454 | 1.57662 | 15482 ft | 348 kts | 82° |
| 2026-05-07 19:52 | 39.39857 | 1.60730 | 15101 ft | 345 kts | 81° |
| 2026-05-07 19:52 | 39.40259 | 1.63777 | 14723 ft | 343 kts | 81° |
| 2026-05-07 19:52 | 39.40657 | 1.66807 | 14353 ft | 341 kts | 81° |
| 2026-05-07 19:52 | 39.41049 | 1.69822 | 13988 ft | 339 kts | 81° |
| 2026-05-07 19:53 | 39.41436 | 1.72814 | 13607 ft | 336 kts | 81° |
| 2026-05-07 19:53 | 39.41820 | 1.75788 | 13204 ft | 334 kts | 82° |
| 2026-05-07 19:53 | 39.42201 | 1.78736 | 12813 ft | 331 kts | 81° |
| 2026-05-07 19:53 | 39.42579 | 1.81659 | 12435 ft | 328 kts | 81° |
| 2026-05-07 19:54 | 39.42953 | 1.84560 | 12069 ft | 325 kts | 81° |
| 2026-05-07 19:54 | 39.43323 | 1.87426 | 11701 ft | 322 kts | 81° |
| 2026-05-07 19:54 | 39.43685 | 1.90252 | 11497 ft | 313 kts | 81° |
| 2026-05-07 19:54 | 39.44032 | 1.92968 | 11369 ft | 297 kts | 80° |
| 2026-05-07 19:55 | 39.44357 | 1.95510 | 11241 ft | 277 kts | 80° |
| 2026-05-07 19:55 | 39.44664 | 1.97926 | 11121 ft | 267 kts | 80° |
| 2026-05-07 19:55 | 39.44960 | 2.00272 | 10900 ft | 263 kts | 80° |
| 2026-05-07 19:55 | 39.45273 | 2.02599 | 10605 ft | 262 kts | 75° |
| 2026-05-07 19:56 | 39.45827 | 2.04827 | 10312 ft | 260 kts | 70° |
| 2026-05-07 19:56 | 39.46413 | 2.07029 | 10021 ft | 258 kts | 70° |
| 2026-05-07 19:56 | 39.46972 | 2.09240 | 9511 ft | 264 kts | 77° |
| 2026-05-07 19:56 | 39.46923 | 2.11650 | 8898 ft | 275 kts | 106° |
| 2026-05-07 19:57 | 39.46132 | 2.13873 | 8669 ft | 270 kts | 116° |
| 2026-05-07 19:57 | 39.45238 | 2.15960 | 8512 ft | 261 kts | 117° |
| 2026-05-07 19:57 | 39.44354 | 2.17987 | 8220 ft | 258 kts | 117° |
| 2026-05-07 19:57 | 39.43459 | 2.20027 | 7702 ft | 263 kts | 117° |
| 2026-05-07 19:58 | 39.42572 | 2.22039 | 7214 ft | 258 kts | 117° |
| 2026-05-07 19:58 | 39.41683 | 2.24033 | 6723 ft | 254 kts | 117° |
| 2026-05-07 19:58 | 39.40803 | 2.25989 | 6236 ft | 250 kts | 117° |
| 2026-05-07 19:58 | 39.40035 | 2.27957 | 5716 ft | 241 kts | 102° |
| 2026-05-07 19:59 | 39.39769 | 2.30063 | 5216 ft | 235 kts | 94° |
| 2026-05-07 19:59 | 39.39644 | 2.32162 | 4712 ft | 234 kts | 92° |
| 2026-05-07 19:59 | 39.39539 | 2.34262 | 4205 ft | 234 kts | 92° |
| 2026-05-07 19:59 | 39.39439 | 2.36312 | 4002 ft | 220 kts | 92° |
| 2026-05-07 20:00 | 39.39415 | 2.38189 | 3996 ft | 199 kts | 79° |
| 2026-05-07 20:00 | 39.39846 | 2.39841 | 4003 ft | 194 kts | 59° |
| 2026-05-07 20:00 | 39.40549 | 2.41314 | 4004 ft | 188 kts | 58° |
| 2026-05-07 20:00 | 39.41224 | 2.42722 | 4043 ft | 182 kts | 58° |
| 2026-05-07 20:01 | 39.41887 | 2.44109 | 4019 ft | 181 kts | 58° |
| 2026-05-07 20:01 | 39.42551 | 2.45499 | 4009 ft | 182 kts | 58° |
| 2026-05-07 20:01 | 39.43214 | 2.46887 | 4010 ft | 182 kts | 58° |
| 2026-05-07 20:01 | 39.43879 | 2.48281 | 3961 ft | 182 kts | 58° |
| 2026-05-07 20:02 | 39.44542 | 2.49671 | 3787 ft | 182 kts | 58° |
| 2026-05-07 20:02 | 39.45204 | 2.51059 | 3557 ft | 182 kts | 58° |
| 2026-05-07 20:02 | 39.45865 | 2.52444 | 3322 ft | 180 kts | 58° |
| 2026-05-07 20:02 | 39.46520 | 2.53821 | 3082 ft | 179 kts | 58° |
| 2026-05-07 20:03 | 39.47174 | 2.55192 | 2845 ft | 179 kts | 59° |
| 2026-05-07 20:03 | 39.47825 | 2.56562 | 2598 ft | 178 kts | 58° |
| 2026-05-07 20:03 | 39.48474 | 2.57926 | 2366 ft | 178 kts | 59° |
| 2026-05-07 20:03 | 39.49117 | 2.59278 | 2132 ft | 176 kts | 58° |
| 2026-05-07 20:04 | 39.49758 | 2.60626 | 1887 ft | 175 kts | 59° |
| 2026-05-07 20:04 | 39.50180 | 2.61512 | 1735 ft | 174 kts | 58° |
| 2026-05-07 20:04 | 39.50814 | 2.62849 | 1500 ft | 174 kts | 58° |
| 2026-05-07 20:04 | 39.51447 | 2.64182 | 1267 ft | 173 kts | 58° |
| 2026-05-07 20:05 | 39.52069 | 2.65492 | 1030 ft | 168 kts | 58° |
| 2026-05-07 20:05 | 39.52669 | 2.66755 | 821 ft | 162 kts | 58° |
| 2026-05-07 20:05 | 39.53239 | 2.67958 | 620 ft | 151 kts | 59° |
| 2026-05-07 20:05 | 39.53769 | 2.69077 | 427 ft | 141 kts | 58° |
| 2026-05-07 20:06 | 39.54285 | 2.70151 | 214 ft | 141 kts | 56° |
| 2026-05-07 20:06 | 39.54781 | 2.71205 | 55 ft | 131 kts | 58° |
| 2026-05-07 20:06 | 39.55213 | 2.72120 | 38 ft | 103 kts | 58° |
| 2026-05-07 20:06 | 39.55469 | 2.72656 | 38 ft | 29 kts | 60° |
| 2026-05-07 20:07 | 39.55497 | 2.72858 | 38 ft | 15 kts | 87° |
| 2026-05-07 20:07 | 39.55502 | 2.72998 | 38 ft | 16 kts | 89° |
| 2026-05-07 20:07 | 39.55504 | 2.73107 | 38 ft | 12 kts | 89° |
| 2026-05-07 20:07 | 39.55520 | 2.73218 | 37 ft | 14 kts | 59° |
| 2026-05-07 20:08 | 39.55572 | 2.73329 | 38 ft | 15 kts | 58° |
| 2026-05-07 20:08 | 39.55622 | 2.73456 | 38 ft | 16 kts | 86° |
| 2026-05-07 20:08 | 39.55544 | 2.73561 | 38 ft | 18 kts | 149° |
| 2026-05-07 20:08 | 39.55435 | 2.73647 | 37 ft | 19 kts | 149° |
| 2026-05-07 20:09 | 39.55316 | 2.73740 | 38 ft | 21 kts | 149° |
| 2026-05-07 20:09 | 39.55206 | 2.73827 | 38 ft | 17 kts | 148° |
| 2026-05-07 20:09 | 39.55099 | 2.73911 | 38 ft | 18 kts | 149° |
| 2026-05-07 20:10 | 39.54887 | 2.74082 | 38 ft | 13 kts | 150° |
| 2026-05-07 20:10 | 39.54812 | 2.74126 | 38 ft | 11 kts | 177° |
| 2026-05-07 20:10 | 39.54784 | 2.74113 | 38 ft | 1 kts | 212° |
| 2026-05-07 20:10 | 39.54776 | 2.74097 | 37 ft | 9 kts | 239° |
| 2026-05-07 20:11 | 39.54722 | 2.73980 | 38 ft | 15 kts | 239° |
| 2026-05-07 20:11 | 39.54668 | 2.73869 | 38 ft | 14 kts | 237° |
| 2026-05-07 20:11 | 39.54619 | 2.73770 | 38 ft | 12 kts | 237° |
| 2026-05-07 20:11 | 39.54578 | 2.73680 | 38 ft | 11 kts | 252° |
| 2026-05-07 20:12 | 39.54620 | 2.73627 | 38 ft | 9 kts | 344° |
| 2026-05-07 20:12 | 39.54672 | 2.73610 | 38 ft | 6 kts | 355° |
| 2026-05-07 20:12 | 39.54704 | 2.73643 | 38 ft | 6 kts | 51° |
| 2026-05-07 20:12 | 39.54713 | 2.73661 | 38 ft | 0 kts | 57° |